createdAt,value
2019-03-26T00:02:17.293Z,86.08
2019-03-26T00:04:48.721Z,86.37
2019-03-26T00:07:21.103Z,86.23
2019-03-26T00:09:52.628Z,86.23
2019-03-26T00:12:24.054Z,86.14
2019-03-26T00:14:55.506Z,86.45
2019-03-26T00:17:29.874Z,86.25
2019-03-26T00:20:01.536Z,86.60
2019-03-26T00:22:32.871Z,86.57
2019-03-26T00:25:05.649Z,86.69
2019-03-26T00:27:38.018Z,86.96
2019-03-26T00:30:09.453Z,87.05
2019-03-26T00:32:40.880Z,87.19
2019-03-26T00:35:12.624Z,87.09
2019-03-26T00:37:44.026Z,87.28
2019-03-26T00:40:16.424Z,87.36
2019-03-26T00:42:47.856Z,87.33
2019-03-26T00:45:19.191Z,87.14
2019-03-26T00:47:50.519Z,86.93
2019-03-26T00:50:21.950Z,86.74
2019-03-26T00:52:53.383Z,86.77
2019-03-26T00:55:24.810Z,86.75
2019-03-26T00:57:56.144Z,86.70
2019-03-26T01:00:42.573Z,86.55
2019-03-26T01:03:13.910Z,86.53
2019-03-26T01:05:45.717Z,86.42
2019-03-26T01:08:17.037Z,86.60
2019-03-26T01:10:48.367Z,86.59
2019-03-26T01:13:19.681Z,86.49
2019-03-26T01:15:51.159Z,86.20
2019-03-26T01:18:22.479Z,86.22
2019-03-26T01:20:53.809Z,86.17
2019-03-26T01:23:25.141Z,85.81
2019-03-26T01:25:56.669Z,85.96
2019-03-26T01:28:27.989Z,85.89
2019-03-26T01:30:59.317Z,86.02
2019-03-26T01:33:30.633Z,85.88
2019-03-26T01:36:03.026Z,85.61
2019-03-26T01:38:34.557Z,85.62
2019-03-26T01:41:05.883Z,85.54
2019-03-26T01:43:37.503Z,85.18
2019-03-26T01:46:08.921Z,85.38
2019-03-26T01:48:40.238Z,84.97
2019-03-26T01:51:11.558Z,84.80
2019-03-26T01:53:42.972Z,84.96
2019-03-26T01:56:14.303Z,84.73
2019-03-26T01:58:45.619Z,84.65
2019-03-26T02:01:16.940Z,85.14
2019-03-26T02:03:48.451Z,84.94
2019-03-26T02:06:19.772Z,84.41
2019-03-26T02:08:51.393Z,84.50
2019-03-26T02:11:22.717Z,84.34
2019-03-26T02:13:54.712Z,84.49
2019-03-26T02:16:26.042Z,84.10
2019-03-26T02:18:57.370Z,84.25
2019-03-26T02:21:31.411Z,84.42
2019-03-26T02:24:02.755Z,84.48
2019-03-26T02:26:34.079Z,84.54
2019-03-26T02:29:05.402Z,84.78
2019-03-26T02:31:36.729Z,84.68
2019-03-26T02:34:08.048Z,84.49
2019-03-26T02:36:40.267Z,84.03
2019-03-26T02:39:11.663Z,84.56
2019-03-26T02:41:42.994Z,84.24
2019-03-26T02:44:14.416Z,84.36
2019-03-26T02:46:45.736Z,84.15
2019-03-26T02:49:17.073Z,84.34
2019-03-26T02:51:48.400Z,83.97
2019-03-26T02:54:19.711Z,84.02
2019-03-26T02:56:51.136Z,84.17
2019-03-26T02:59:22.471Z,84.12
2019-03-26T03:01:53.869Z,84.04
2019-03-26T03:04:25.532Z,84.17
2019-03-26T03:06:56.893Z,84.28
2019-03-26T03:09:28.214Z,84.09
2019-03-26T03:11:59.917Z,84.25
2019-03-26T03:14:31.241Z,84.38
2019-03-26T03:17:02.560Z,84.22
2019-03-26T03:19:33.880Z,84.35
2019-03-26T03:22:05.480Z,84.53
2019-03-26T03:24:36.963Z,84.47
2019-03-26T03:27:08.290Z,84.28
2019-03-26T03:29:40.787Z,84.37
2019-03-26T03:32:12.126Z,84.46
2019-03-26T03:34:43.446Z,84.32
2019-03-26T03:37:14.771Z,84.50
2019-03-26T03:39:46.103Z,84.40
2019-03-26T03:42:17.427Z,84.37
2019-03-26T03:44:48.766Z,84.37
2019-03-26T03:47:20.082Z,84.48
2019-03-26T03:49:51.411Z,84.42
2019-03-26T03:52:22.729Z,84.53
2019-03-26T03:54:54.154Z,84.59
2019-03-26T03:57:25.750Z,84.76
2019-03-26T03:59:57.078Z,84.70
2019-03-26T04:02:28.407Z,84.69
2019-03-26T04:04:59.731Z,84.72
2019-03-26T04:07:31.145Z,84.77
2019-03-26T04:10:02.487Z,84.96
2019-03-26T04:12:33.798Z,84.82
2019-03-26T04:15:07.072Z,85.21
2019-03-26T04:17:38.388Z,85.20
2019-03-26T04:20:21.952Z,85.24
2019-03-26T04:22:53.384Z,85.31
2019-03-26T04:25:24.707Z,85.43
2019-03-26T04:27:56.037Z,85.34
2019-03-26T04:30:31.767Z,85.33
2019-03-26T04:33:04.359Z,85.31
2019-03-26T04:35:35.777Z,85.14
2019-03-26T04:38:07.103Z,85.05
2019-03-26T04:40:38.733Z,85.19
2019-03-26T04:43:10.052Z,85.15
2019-03-26T04:45:41.582Z,85.22
2019-03-26T04:48:12.916Z,85.18
2019-03-26T04:50:44.245Z,85.13
2019-03-26T04:53:15.568Z,84.83
2019-03-26T04:55:47.097Z,84.78
2019-03-26T04:58:18.421Z,84.79
2019-03-26T05:00:50.050Z,84.67
2019-03-26T05:03:21.378Z,84.57
2019-03-26T05:05:52.895Z,84.55
2019-03-26T05:08:24.224Z,84.41
2019-03-26T05:10:55.557Z,84.31
2019-03-26T05:13:26.981Z,84.21
2019-03-26T05:15:58.712Z,84.24
2019-03-26T05:18:30.040Z,84.07
2019-03-26T05:21:01.366Z,83.87
2019-03-26T05:23:32.693Z,83.85
2019-03-26T05:26:04.024Z,83.75
2019-03-26T05:28:35.345Z,83.78
2019-03-26T05:31:09.458Z,83.87
2019-03-26T05:33:43.326Z,83.71
2019-03-26T05:36:14.649Z,83.66
2019-03-26T05:38:45.973Z,83.70
2019-03-26T05:41:17.307Z,83.63
2019-03-26T05:43:48.628Z,83.57
2019-03-26T05:46:19.959Z,83.42
2019-03-26T05:48:51.283Z,83.23
2019-03-26T05:51:22.611Z,82.80
2019-03-26T05:53:53.942Z,82.87
2019-03-26T05:56:25.291Z,82.66
2019-03-26T05:58:56.602Z,82.37
2019-03-26T06:01:27.938Z,81.85
2019-03-26T06:03:59.269Z,82.09
2019-03-26T06:06:30.799Z,81.93
2019-03-26T06:09:02.326Z,82.23
2019-03-26T06:11:33.919Z,82.18
2019-03-26T06:14:05.254Z,82.17
2019-03-26T06:16:38.567Z,81.99
2019-03-26T06:19:09.635Z,81.88
2019-03-26T06:21:41.078Z,81.50
2019-03-26T06:24:12.503Z,81.21
2019-03-26T06:26:44.040Z,81.12
2019-03-26T06:29:15.375Z,80.72
2019-03-26T06:31:46.730Z,80.39
2019-03-26T06:34:18.357Z,80.02
2019-03-26T06:36:49.696Z,79.41
2019-03-26T06:39:21.220Z,79.44
2019-03-26T06:41:52.649Z,79.68
2019-03-26T06:44:23.971Z,79.76
2019-03-26T06:46:55.303Z,79.34
2019-03-26T06:49:27.900Z,79.00
2019-03-26T06:52:00.913Z,78.65
2019-03-26T06:54:32.232Z,77.98
2019-03-26T06:57:04.000Z,77.25
2019-03-26T06:59:35.325Z,77.32
2019-03-26T07:02:06.750Z,77.44
2019-03-26T07:04:47.881Z,76.27
2019-03-26T07:07:31.062Z,75.26
2019-03-26T07:09:52.236Z,73.59
2019-03-26T07:12:23.976Z,74.51
2019-03-26T07:14:55.426Z,74.31
2019-03-26T07:17:27.476Z,73.45
2019-03-26T07:19:58.900Z,73.36
2019-03-26T07:22:30.249Z,71.84
2019-03-26T07:25:01.591Z,71.13
2019-03-26T07:27:32.910Z,66.95
2019-03-26T07:30:07.025Z,63.82
2019-03-26T07:32:38.366Z,64.86
2019-03-26T07:35:09.751Z,67.83
2019-03-26T07:37:47.368Z,68.02
2019-03-26T07:40:20.526Z,68.94
2019-03-26T07:42:51.859Z,69.83
2019-03-26T07:45:23.177Z,70.13
2019-03-26T07:47:54.714Z,70.31
2019-03-26T07:50:26.038Z,71.29
2019-03-26T07:52:57.378Z,70.43
2019-03-26T07:55:29.019Z,70.46
2019-03-26T07:58:00.388Z,70.34
2019-03-26T08:00:35.750Z,70.21
2019-03-26T08:03:07.551Z,70.31
2019-03-26T08:05:38.913Z,69.50
2019-03-26T08:08:10.239Z,70.85
2019-03-26T08:10:41.571Z,71.27
2019-03-26T08:13:12.934Z,70.11
2019-03-26T08:15:44.272Z,70.47
2019-03-26T08:18:15.590Z,68.66
2019-03-26T08:20:47.223Z,68.99
2019-03-26T08:23:18.570Z,68.86
2019-03-26T08:25:49.892Z,69.44
2019-03-26T08:28:22.398Z,70.52
2019-03-26T08:30:54.904Z,70.94
2019-03-26T08:33:26.239Z,71.54
2019-03-26T08:35:57.762Z,71.39
2019-03-26T08:38:33.287Z,72.23
2019-03-26T08:41:03.152Z,72.11
2019-03-26T08:43:34.485Z,72.05
2019-03-26T08:46:05.868Z,72.92
2019-03-26T08:48:37.201Z,72.39
2019-03-26T08:51:08.628Z,72.52
2019-03-26T08:53:40.059Z,72.22
2019-03-26T08:56:11.391Z,71.82
2019-03-26T08:58:43.991Z,71.97
2019-03-26T09:01:15.309Z,71.76
2019-03-26T09:03:46.841Z,72.07
2019-03-26T09:06:18.183Z,72.22
2019-03-26T09:08:49.719Z,72.13
2019-03-26T09:11:21.037Z,72.53
2019-03-26T09:13:52.671Z,72.39
2019-03-26T09:16:25.264Z,71.66
2019-03-26T09:18:56.588Z,70.83
2019-03-26T09:21:27.908Z,69.16
2019-03-26T09:23:59.251Z,67.44
2019-03-26T09:26:30.572Z,67.14
2019-03-26T09:29:01.931Z,66.91
2019-03-26T09:31:33.245Z,66.06
2019-03-26T09:34:04.576Z,66.09
2019-03-26T09:36:36.009Z,66.20
2019-03-26T09:39:08.811Z,66.79
2019-03-26T09:41:40.345Z,66.43
2019-03-26T09:44:11.655Z,66.17
2019-03-26T09:46:42.987Z,65.64
2019-03-26T09:49:16.149Z,65.28
2019-03-26T09:51:47.572Z,64.99
2019-03-26T09:54:19.038Z,64.10
2019-03-26T09:56:50.486Z,63.76
2019-03-26T09:59:24.693Z,63.78
2019-03-26T10:01:56.269Z,62.69
2019-03-26T10:04:27.787Z,61.78
2019-03-26T10:07:02.511Z,61.19
2019-03-26T10:09:33.894Z,61.01
2019-03-26T10:12:07.157Z,60.36
2019-03-26T10:14:39.729Z,60.79
2019-03-26T10:17:11.526Z,60.40
2019-03-26T10:19:42.948Z,59.80
2019-03-26T10:22:14.441Z,60.71
2019-03-26T10:24:45.757Z,60.66
2019-03-26T10:27:17.080Z,61.73
2019-03-26T10:29:48.416Z,62.07
2019-03-26T10:32:19.738Z,62.88
2019-03-26T10:34:51.055Z,62.93
2019-03-26T10:37:22.372Z,63.09
2019-03-26T10:39:53.699Z,62.54
2019-03-26T10:42:25.119Z,61.92
2019-03-26T10:44:56.841Z,62.50
2019-03-26T10:47:28.164Z,62.72
2019-03-26T10:49:59.784Z,61.55
2019-03-26T10:52:34.392Z,61.89
2019-03-26T10:55:06.177Z,60.87
2019-03-26T10:57:37.501Z,60.28
2019-03-26T11:00:08.918Z,59.08
2019-03-26T11:02:40.264Z,58.19
2019-03-26T11:05:11.573Z,57.46
2019-03-26T11:07:42.986Z,55.86
2019-03-26T11:10:15.358Z,56.76
2019-03-26T11:12:46.677Z,55.88
2019-03-26T11:15:18.298Z,56.02
2019-03-26T11:17:49.617Z,54.52
2019-03-26T11:20:22.312Z,54.80
2019-03-26T11:22:53.706Z,53.87
2019-03-26T11:25:25.027Z,54.93
2019-03-26T11:27:56.621Z,54.39
2019-03-26T11:30:27.940Z,54.69
2019-03-26T11:32:59.261Z,54.21
2019-03-26T11:35:30.579Z,54.74
2019-03-26T11:38:02.317Z,55.20
2019-03-26T11:40:33.640Z,55.02
2019-03-26T11:43:04.963Z,56.26
2019-03-26T11:45:36.281Z,55.79
2019-03-26T11:48:09.261Z,56.96
2019-03-26T11:50:40.781Z,56.74
2019-03-26T11:53:12.205Z,56.43
2019-03-26T11:55:43.525Z,56.91
2019-03-26T11:58:15.123Z,57.69
2019-03-26T12:00:46.469Z,56.39
2019-03-26T12:03:18.003Z,53.63
2019-03-26T12:05:49.407Z,53.26
2019-03-26T12:08:20.743Z,53.20
2019-03-26T12:10:52.065Z,53.38
2019-03-26T12:13:23.503Z,53.03
2019-03-26T12:15:54.915Z,52.60
2019-03-26T12:18:26.257Z,51.77
2019-03-26T12:20:57.622Z,52.12
2019-03-26T12:23:28.966Z,52.36
2019-03-26T12:26:00.500Z,51.89
2019-03-26T12:28:31.835Z,52.50
2019-03-26T12:31:04.017Z,53.23
2019-03-26T12:33:36.430Z,52.47
2019-03-26T12:36:07.692Z,52.09
2019-03-26T12:38:39.236Z,52.08
2019-03-26T12:41:10.561Z,51.23
2019-03-26T12:43:42.174Z,51.33
2019-03-26T12:46:13.582Z,51.22
2019-03-26T12:48:44.915Z,52.65
2019-03-26T12:51:16.232Z,53.59
2019-03-26T12:53:47.596Z,54.90
2019-03-26T12:56:18.921Z,55.37
2019-03-26T12:58:50.234Z,55.72
2019-03-26T13:01:21.545Z,55.44
2019-03-26T13:03:52.858Z,56.90
2019-03-26T13:06:24.171Z,57.75
2019-03-26T13:08:55.540Z,58.39
2019-03-26T13:11:26.883Z,59.87
2019-03-26T13:13:59.909Z,59.53
2019-03-26T13:19:20.741Z,56.80
2019-03-26T13:21:52.364Z,57.07
2019-03-26T13:24:24.734Z,55.45
2019-03-26T13:27:00.074Z,56.10
2019-03-26T13:29:31.395Z,55.99
2019-03-26T13:32:02.720Z,55.95
2019-03-26T13:34:34.048Z,55.75
2019-03-26T13:37:05.656Z,56.59
2019-03-26T13:39:43.077Z,56.94
2019-03-26T13:42:10.082Z,57.00
2019-03-26T13:44:42.971Z,57.00
2019-03-26T13:47:16.196Z,57.62
2019-03-26T13:49:49.395Z,58.05
2019-03-26T13:52:20.705Z,58.25
2019-03-26T13:54:52.027Z,58.49
2019-03-26T13:57:23.353Z,58.46
2019-03-26T13:59:55.036Z,58.74
2019-03-26T14:02:26.653Z,58.72
2019-03-26T14:04:58.377Z,58.35
2019-03-26T14:07:31.131Z,58.49
2019-03-26T14:10:02.455Z,58.35
2019-03-26T14:12:34.444Z,58.80
2019-03-26T14:15:07.340Z,58.64
2019-03-26T14:17:38.659Z,59.86
2019-03-26T14:20:14.591Z,59.53
2019-03-26T14:22:45.964Z,60.40
2019-03-26T14:25:17.683Z,60.55
2019-03-26T14:27:49.435Z,60.98
2019-03-26T14:30:36.370Z,60.94
2019-03-26T14:33:08.014Z,60.97
2019-03-26T14:35:39.529Z,60.26
2019-03-26T14:38:10.909Z,60.92
2019-03-26T14:40:53.893Z,60.75
2019-03-26T14:43:15.377Z,61.68
2019-03-26T14:45:48.315Z,63.60
2019-03-26T14:48:21.409Z,63.64
2019-03-26T14:51:04.126Z,63.35
2019-03-26T14:53:40.019Z,64.03
2019-03-26T14:56:16.356Z,64.33
2019-03-26T14:58:48.661Z,65.12
2019-03-26T15:01:21.742Z,64.14
2019-03-26T15:03:57.289Z,63.79
2019-03-26T15:06:30.055Z,64.61
2019-03-26T15:09:12.956Z,64.14
2019-03-26T15:11:57.529Z,64.21
2019-03-26T15:14:36.643Z,64.16
2019-03-26T15:17:11.010Z,63.91
2019-03-26T15:19:42.350Z,63.31
2019-03-26T15:22:13.679Z,63.69
2019-03-26T15:24:45.087Z,64.89
2019-03-26T15:27:17.780Z,69.27
2019-03-26T15:29:49.111Z,70.21
2019-03-26T15:32:20.439Z,70.26
2019-03-26T15:34:51.779Z,71.49
2019-03-26T15:37:24.384Z,71.52
2019-03-26T15:39:55.814Z,69.54
2019-03-26T15:42:27.279Z,69.02
2019-03-26T15:44:58.616Z,69.52
2019-03-26T15:47:29.973Z,69.60
2019-03-26T15:50:01.318Z,68.85
2019-03-26T15:52:35.005Z,69.01
2019-03-26T15:55:14.589Z,68.66
2019-03-26T15:57:56.290Z,67.32
2019-03-26T16:00:33.024Z,67.05
2019-03-26T16:03:05.590Z,67.28
2019-03-26T16:05:42.278Z,66.95
2019-03-26T16:08:13.904Z,66.37
2019-03-26T16:10:45.243Z,67.05
2019-03-26T16:13:16.602Z,65.96
2019-03-26T16:15:47.935Z,66.28
2019-03-26T16:18:20.392Z,66.06
2019-03-26T16:20:51.746Z,65.26
2019-03-26T16:23:25.092Z,66.32
2019-03-26T16:25:56.128Z,65.78
2019-03-26T16:28:27.470Z,66.42
2019-03-26T16:31:06.842Z,66.27
2019-03-26T16:33:38.448Z,65.68
2019-03-26T16:36:10.919Z,66.27
2019-03-26T16:38:42.244Z,65.68
2019-03-26T16:41:14.312Z,64.64
2019-03-26T16:43:48.215Z,63.32
2019-03-26T16:46:22.472Z,63.52
2019-03-26T16:48:55.460Z,63.75
2019-03-26T16:51:26.828Z,63.58
2019-03-26T16:53:58.167Z,62.76
2019-03-26T16:56:29.551Z,63.79
2019-03-26T16:59:00.867Z,63.08
2019-03-26T17:01:32.642Z,63.59
2019-03-26T17:04:03.985Z,63.70
2019-03-26T17:06:35.361Z,63.46
2019-03-26T17:09:07.977Z,64.40
2019-03-26T17:11:39.316Z,64.06
2019-03-26T17:14:11.518Z,64.24
2019-03-26T17:16:42.882Z,64.46
2019-03-26T17:19:14.895Z,64.35
2019-03-26T17:21:47.488Z,64.05
2019-03-26T17:24:19.043Z,63.96
2019-03-26T17:26:50.410Z,64.04
2019-03-26T17:29:21.800Z,63.41
2019-03-26T17:31:55.862Z,63.13
2019-03-26T17:34:27.376Z,63.16
2019-03-26T17:36:58.763Z,62.89
2019-03-26T17:39:31.613Z,62.36
2019-03-26T17:42:16.215Z,62.43
2019-03-26T17:44:36.495Z,61.50
2019-03-26T17:47:07.988Z,61.81
2019-03-26T17:49:41.705Z,61.57
2019-03-26T17:52:13.383Z,61.62
2019-03-26T17:54:44.723Z,61.21
2019-03-26T17:57:16.084Z,61.68
2019-03-26T17:59:50.166Z,61.23
2019-03-26T18:02:21.539Z,61.00
2019-03-26T18:04:52.912Z,61.12
2019-03-26T18:07:24.970Z,60.97
2019-03-26T18:09:56.608Z,61.24
2019-03-26T18:12:30.991Z,61.57
2019-03-26T18:15:05.023Z,61.47
2019-03-26T18:17:36.428Z,61.85
2019-03-26T18:20:09.373Z,61.65
2019-03-26T18:22:40.798Z,61.63
2019-03-26T18:25:12.334Z,61.66
2019-03-26T18:27:43.808Z,61.54
2019-03-26T18:30:15.367Z,61.48
2019-03-26T18:32:49.191Z,61.93
2019-03-26T18:35:21.826Z,61.67
2019-03-26T18:37:53.175Z,61.70
2019-03-26T18:40:25.008Z,61.74
2019-03-26T18:42:58.914Z,61.73
2019-03-26T18:45:30.471Z,62.73
2019-03-26T18:48:09.011Z,64.42
2019-03-26T18:50:50.911Z,65.67
2019-03-26T18:53:23.667Z,65.92
2019-03-26T18:56:04.238Z,66.42
2019-03-26T18:58:45.230Z,66.60
2019-03-26T19:01:27.404Z,66.81
2019-03-26T19:04:03.189Z,67.12
2019-03-26T19:06:41.298Z,66.89
2019-03-26T19:09:15.207Z,67.22
2019-03-26T19:11:46.952Z,67.49
2019-03-26T19:14:21.474Z,67.08
2019-03-26T19:16:53.410Z,67.14
2019-03-26T19:19:29.844Z,67.47
2019-03-26T19:22:01.215Z,66.80
2019-03-26T19:24:34.303Z,67.26
2019-03-26T19:27:06.600Z,67.14
2019-03-26T19:29:40.313Z,67.18
2019-03-26T19:32:13.325Z,67.38
2019-03-26T19:34:46.831Z,67.37
2019-03-26T19:37:20.020Z,67.86
2019-03-26T19:39:54.531Z,67.70
2019-03-26T19:42:26.484Z,68.01
2019-03-26T19:44:59.450Z,67.99
2019-03-26T19:47:30.943Z,68.13
2019-03-26T19:50:02.723Z,68.15
2019-03-26T19:52:35.242Z,67.86
2019-03-26T19:55:08.120Z,67.57
2019-03-26T19:57:46.014Z,67.42
2019-03-26T20:00:19.650Z,67.07
2019-03-26T20:02:52.626Z,67.41
2019-03-26T20:05:23.974Z,67.25
2019-03-26T20:07:55.315Z,67.34
2019-03-26T20:10:29.861Z,67.41
2019-03-26T20:13:03.060Z,67.76
2019-03-26T20:15:37.388Z,67.65
2019-03-26T20:18:11.905Z,67.60
2019-03-26T20:20:45.126Z,67.27
2019-03-26T20:23:24.843Z,67.56
2019-03-26T20:25:52.162Z,68.38
2019-03-26T20:28:28.923Z,68.87
2019-03-26T20:31:01.791Z,69.31
2019-03-26T20:33:33.175Z,70.23
2019-03-26T20:36:06.381Z,69.95
2019-03-26T20:38:43.072Z,71.27
2019-03-26T20:41:16.231Z,71.00
2019-03-26T20:43:51.361Z,71.76
2019-03-26T20:46:22.693Z,71.13
2019-03-26T20:48:54.029Z,71.66
2019-03-26T20:51:34.351Z,72.02
2019-03-26T20:54:07.605Z,72.21
2019-03-26T20:56:40.826Z,72.57
2019-03-26T20:59:12.074Z,72.89
2019-03-26T21:01:45.672Z,73.35
2019-03-26T21:04:20.418Z,73.43
2019-03-26T21:06:58.172Z,73.75
2019-03-26T21:09:31.081Z,73.82
2019-03-26T21:12:02.627Z,73.95
2019-03-26T21:14:33.985Z,74.52
2019-03-26T21:17:05.411Z,74.53
2019-03-26T21:19:37.123Z,74.99
2019-03-26T21:22:12.756Z,75.69
2019-03-26T21:24:47.155Z,75.54
2019-03-26T21:27:23.239Z,75.54
2019-03-26T21:30:09.764Z,76.33
2019-03-26T21:32:31.143Z,75.71
2019-03-26T21:35:07.367Z,75.98
2019-03-26T21:37:42.814Z,75.89
2019-03-26T21:40:15.795Z,76.25
2019-03-26T21:42:47.904Z,76.52
2019-03-26T21:45:29.971Z,76.94
2019-03-26T21:48:03.927Z,77.00
2019-03-26T21:50:37.927Z,77.19
2019-03-26T21:53:13.349Z,77.77
2019-03-26T21:55:48.744Z,78.34
2019-03-26T21:58:21.667Z,78.77
2019-03-26T22:00:56.044Z,79.65
2019-03-26T22:03:32.761Z,78.53
2019-03-26T22:06:04.098Z,79.18
2019-03-26T22:08:38.947Z,78.72
2019-03-26T22:11:11.749Z,79.48
2019-03-26T22:13:45.900Z,79.03
2019-03-26T22:16:22.977Z,79.24
2019-03-26T22:18:57.866Z,79.35
2019-03-26T22:21:29.191Z,79.64
2019-03-26T22:24:00.542Z,80.16
2019-03-26T22:26:33.519Z,80.14
2019-03-26T22:29:04.841Z,80.19
2019-03-26T22:31:36.188Z,80.36
2019-03-26T22:34:08.109Z,80.13
2019-03-26T22:36:39.556Z,79.90
2019-03-26T22:39:12.138Z,80.46
2019-03-26T22:41:43.796Z,80.50
2019-03-26T22:44:15.222Z,80.44
2019-03-26T22:46:46.580Z,80.52
2019-03-26T22:49:18.208Z,80.57
2019-03-26T22:51:49.582Z,81.13
2019-03-26T22:54:20.951Z,81.02
2019-03-26T22:56:52.319Z,81.26
2019-03-26T22:59:27.009Z,81.25
2019-03-26T23:01:59.761Z,81.18
2019-03-26T23:04:31.108Z,81.03
2019-03-26T23:07:03.027Z,80.96
2019-03-26T23:09:34.345Z,81.37
2019-03-26T23:12:05.710Z,81.03
2019-03-26T23:14:45.084Z,80.48
2019-03-26T23:17:10.322Z,81.18
2019-03-26T23:19:41.629Z,81.33
2019-03-26T23:22:13.180Z,81.28
2019-03-26T23:24:44.520Z,81.62
2019-03-26T23:27:15.858Z,81.45
2019-03-26T23:29:47.201Z,81.06
2019-03-26T23:32:19.189Z,82.19
2019-03-26T23:34:50.715Z,82.47
2019-03-26T23:37:22.070Z,82.46
2019-03-26T23:39:54.501Z,82.02
2019-03-26T23:42:26.330Z,81.75
2019-03-26T23:44:58.815Z,82.06
2019-03-26T23:47:30.503Z,82.01
2019-03-26T23:50:01.834Z,82.36
2019-03-26T23:52:33.391Z,82.52
2019-03-26T23:55:06.802Z,82.37
2019-03-26T23:57:38.475Z,82.56
